Carroll View Terrace, OH

2:16 AM EST on February 26, 2017 (GMT -0500)
MOH038 | | Change Station

Elev 1118 ft 40.59 °N, 81.08 °W | Updated 6 minutes ago

Overcast
Overcast
25.0 °F
Feels Like 25.0 °F
N
1.0
Wind Variable Wind from West
Gusts 1.0 mph

Today
High -- | Low -- °F
--% Chance of Precip.
Yesterday
High -- | Low -- °F
Precip. -- in
Pressure 30.06 in
Visibility 10.0 miles
Clouds Overcast 3600 ft
Dew Point 17.0 °F
Humidity 70%
Rainfall in
Snow Depth Not available.
7:02 AM 6:12 PM
Waning Crescent, 0% visible
METAR KPHD 260653Z AUTO 25004KT 10SM OVC036 M02/M07 A3003 RMK AO2 SNB28E43 SLP177 P0000 T10221067
Pressure 30.06 in
Visibility 10.0 miles
Clouds Overcast 3600 ft
Dew Point 17.0 °F
Humidity 70%
Rainfall in
Snow Depth Not available.
7:02 AM 6:12 PM
Waning Crescent, 0% visible
METAR KPHD 260653Z AUTO 25004KT 10SM OVC036 M02/M07 A3003 RMK AO2 SNB28E43 SLP177 P0000 T10221067

Get Your Daily Forecast Email!

Thanks for signing up!

Be on the lookout for a verification email in your inbox.

You'll start receiving the daily forecast at 8 AM.

×

10-Day Weather Forecast

Almanac

Astronomy

Feb. 26, 2017 Rise Set
Actual Time
Civil Twilight
Nautical Twilight
Astronomical Twilight
Moon
Length of Visible Light
Length of Day
Tomorrow will be .
, % of the Moon is Illuminated

Today's Extremes

State Highs State Lows

Community

WunderPhotos

Upload Photos

1,962,540 photos uploaded!

WunderBlog® & News

Nearby

Air Quality

  Air Quality AQ Index Pollutant
Not available.

Snow Depth

Station Depth Elevation

Earthquake Activity

City Distance Mag. Time & Date
Minimum magnitude displayed is 2.5.

Coastal Water Temperatures

Place Temperature

Stations

Nearby Weather Stations

Station Location Temp. Windchill Dew Point Humidity Wind Precip. Elev Updated Type
                   

Watches & Warnings

There are currently no watches in effect.